KNJK/NJK METAR and TAF weather

Enter ICAO airport designator
Station Type Date Time Source
KNJK METAR 2024/07/13 01:56 UTC NOAA

KNJK 130156Z AUTO 14010KT 10SM 42/17 A2966 RMK AO2 SLP059 T04220172 $


Station Type Date Time Source
KNJK Decoded METAR 2024/07/13 01:56 UTC NOAA

El Centro, Naval Air Facility, CA, United States (KNJK) 32-49-30N 115-39-38W -13M
Jul 12, 2024 - 09:56 PM EDT / 2024.07.13 0156 UTC
Wind: from the SE (140 degrees) at 12 MPH (10 KT):0
Visibility: 10 mile(s):0
Temperature: 108.0 F (42.2 C)
Heat index: 111.2 F (44.0 C):1
Dew Point: 63.0 F (17.2 C)
Relative Humidity: 23%
Pressure (altimeter): 29.66 in. Hg (1004 hPa)
ob: KNJK 130156Z AUTO 14010KT 10SM 42/17 A2966 RMK AO2 SLP059 T04220172
cycle: 2

Station Type Date Time Source
KNJK TAF 2024/07/12 23:57 UTC NOAA